createdAt,value
2019-05-22T00:00:25.228Z,1010.10
2019-05-22T00:01:25.067Z,1010.13
2019-05-22T00:02:25.054Z,1010.14
2019-05-22T00:03:25.041Z,1010.14
2019-05-22T00:04:25.025Z,1010.14
2019-05-22T00:05:25.029Z,1010.11
2019-05-22T00:06:25.020Z,1010.13
2019-05-22T00:07:24.993Z,1010.09
2019-05-22T00:08:24.985Z,1010.12
2019-05-22T00:09:24.970Z,1010.10
2019-05-22T00:10:24.970Z,1010.08
2019-05-22T00:11:24.981Z,1010.10
2019-05-22T00:12:24.954Z,1010.11
2019-05-22T00:13:24.924Z,1010.11
2019-05-22T00:14:25.144Z,1010.13
2019-05-22T00:15:24.921Z,1010.07
2019-05-22T00:16:24.907Z,1010.09
2019-05-22T00:17:24.895Z,1010.11
2019-05-22T00:18:24.875Z,1010.11
2019-05-22T00:19:24.865Z,1010.08
2019-05-22T00:20:24.865Z,1010.13
2019-05-22T00:21:24.873Z,1010.14
2019-05-22T00:22:24.828Z,1010.15
2019-05-22T00:23:24.823Z,1010.15
2019-05-22T00:24:24.828Z,1010.17
2019-05-22T00:25:24.827Z,1010.20
2019-05-22T00:26:25.385Z,1010.19
2019-05-22T00:27:24.777Z,1010.20
2019-05-22T00:28:24.775Z,1010.16
2019-05-22T00:29:24.758Z,1010.17
2019-05-22T00:30:24.760Z,1010.14
2019-05-22T00:31:24.736Z,1010.13
2019-05-22T00:32:24.729Z,1010.18
2019-05-22T00:33:24.713Z,1010.17
2019-05-22T00:34:24.718Z,1010.10
2019-05-22T00:35:24.710Z,1010.11
2019-05-22T00:36:24.680Z,1010.15
2019-05-22T00:37:24.690Z,1010.19
2019-05-22T00:38:24.656Z,1010.15
2019-05-22T00:39:24.667Z,1010.17
2019-05-22T00:40:24.656Z,1010.18
2019-05-22T00:41:24.626Z,1010.14
2019-05-22T00:42:24.613Z,1010.15
2019-05-22T00:43:24.609Z,1010.17
2019-05-22T00:44:24.591Z,1010.21
2019-05-22T00:45:24.606Z,1010.17
2019-05-22T00:46:24.784Z,1010.18
2019-05-22T00:47:24.568Z,1010.19
2019-05-22T00:48:24.546Z,1010.22
2019-05-22T00:49:24.545Z,1010.18
2019-05-22T00:50:24.546Z,1010.18
2019-05-22T00:51:24.524Z,1010.22
2019-05-22T00:52:24.519Z,1010.23
2019-05-22T00:53:24.500Z,1010.20
2019-05-22T00:54:24.485Z,1010.24
2019-05-22T00:55:24.483Z,1010.21
2019-05-22T00:56:24.475Z,1010.21
2019-05-22T00:57:24.451Z,1010.23
2019-05-22T00:58:24.441Z,1010.23
2019-05-22T00:59:24.433Z,1010.19
2019-05-22T01:00:24.495Z,1010.18
2019-05-22T01:01:25.379Z,1010.18
2019-05-22T01:02:24.419Z,1010.20
2019-05-22T01:03:24.608Z,1010.24
2019-05-22T01:04:24.375Z,1010.26
2019-05-22T01:05:24.365Z,1010.26
2019-05-22T01:06:25.362Z,1010.27
2019-05-22T01:07:24.346Z,1010.29
2019-05-22T01:08:24.356Z,1010.31
2019-05-22T01:09:24.323Z,1010.31
2019-05-22T01:10:24.307Z,1010.38
2019-05-22T01:11:24.385Z,1010.41
2019-05-22T01:12:24.293Z,1010.39
2019-05-22T01:13:24.276Z,1010.40
2019-05-22T01:14:24.271Z,1010.44
2019-05-22T01:15:24.271Z,1010.42
2019-05-22T01:16:24.262Z,1010.41
2019-05-22T01:17:24.268Z,1010.48
2019-05-22T01:18:24.227Z,1010.46
2019-05-22T01:19:24.213Z,1010.45
2019-05-22T01:20:24.205Z,1010.45
2019-05-22T01:21:24.208Z,1010.50
2019-05-22T01:22:24.196Z,1010.49
2019-05-22T01:23:24.171Z,1010.46
2019-05-22T01:24:24.156Z,1010.48
2019-05-22T01:25:24.177Z,1010.51
2019-05-22T01:26:24.160Z,1010.49
2019-05-22T01:27:24.143Z,1010.55
2019-05-22T01:28:24.109Z,1010.53
2019-05-22T01:29:24.097Z,1010.52
2019-05-22T01:30:24.100Z,1010.57
2019-05-22T01:31:24.118Z,1010.52
2019-05-22T01:32:24.861Z,1010.55
2019-05-22T01:33:24.066Z,1010.56
2019-05-22T01:34:24.062Z,1010.54
2019-05-22T01:35:24.033Z,1010.55
2019-05-22T01:36:24.049Z,1010.51
2019-05-22T01:37:24.015Z,1010.52
2019-05-22T01:38:24.013Z,1010.56
2019-05-22T01:39:23.996Z,1010.54
2019-05-22T01:40:23.995Z,1010.53
2019-05-22T01:41:23.981Z,1010.64
2019-05-22T01:42:24.025Z,1010.61
2019-05-22T01:43:23.945Z,1010.60
2019-05-22T01:44:23.970Z,1010.64
2019-05-22T01:45:23.922Z,1010.60
2019-05-22T01:46:23.924Z,1010.64
2019-05-22T01:47:23.904Z,1010.63
2019-05-22T01:48:23.888Z,1010.58
2019-05-22T01:49:23.891Z,1010.58
2019-05-22T01:50:23.917Z,1010.58
2019-05-22T01:51:23.887Z,1010.58
2019-05-22T01:52:23.850Z,1010.59
2019-05-22T01:53:23.839Z,1010.57
2019-05-22T01:54:23.829Z,1010.59
2019-05-22T01:55:23.814Z,1010.59
2019-05-22T01:56:23.833Z,1010.62
2019-05-22T01:57:23.788Z,1010.64
2019-05-22T01:58:23.778Z,1010.61
2019-05-22T01:59:23.776Z,1010.58
2019-05-22T02:00:23.765Z,1010.59
2019-05-22T02:01:23.763Z,1010.65
2019-05-22T02:02:23.741Z,1010.60
2019-05-22T02:03:23.728Z,1010.64
2019-05-22T02:04:23.716Z,1010.65
2019-05-22T02:05:23.706Z,1010.64
2019-05-22T02:06:23.740Z,1010.67
2019-05-22T02:07:23.687Z,1010.63
2019-05-22T02:08:23.678Z,1010.64
2019-05-22T02:09:23.657Z,1010.66
2019-05-22T02:10:23.647Z,1010.61
2019-05-22T02:11:23.660Z,1010.62
2019-05-22T02:12:23.639Z,1010.61
2019-05-22T02:13:23.615Z,1010.60
2019-05-22T02:14:23.608Z,1010.61
2019-05-22T02:15:23.596Z,1010.68
2019-05-22T02:16:23.597Z,1010.65
2019-05-22T02:17:23.584Z,1010.67
2019-05-22T02:18:23.561Z,1010.63
2019-05-22T02:19:23.549Z,1010.64
2019-05-22T02:20:23.548Z,1010.61
2019-05-22T02:21:23.542Z,1010.60
2019-05-22T02:22:23.521Z,1010.60
2019-05-22T02:23:23.520Z,1010.65
2019-05-22T02:24:23.522Z,1010.60
2019-05-22T02:25:23.488Z,1010.59
2019-05-22T02:26:23.509Z,1010.62
2019-05-22T02:27:23.462Z,1010.64
2019-05-22T02:28:23.454Z,1010.64
2019-05-22T02:29:23.448Z,1010.60
2019-05-22T02:30:23.447Z,1010.69
2019-05-22T02:31:23.450Z,1010.63
2019-05-22T02:32:24.361Z,1010.64
2019-05-22T02:33:23.400Z,1010.66
2019-05-22T02:34:23.393Z,1010.64
2019-05-22T02:35:23.374Z,1010.68
2019-05-22T02:36:23.391Z,1010.64
2019-05-22T02:37:23.353Z,1010.66
2019-05-22T02:38:23.344Z,1010.69
2019-05-22T02:39:23.348Z,1010.64
2019-05-22T02:40:23.336Z,1010.66
2019-05-22T02:41:23.343Z,1010.70
2019-05-22T02:42:23.302Z,1010.70
2019-05-22T02:43:23.310Z,1010.70
2019-05-22T02:44:23.288Z,1010.70
2019-05-22T02:45:23.274Z,1010.74
2019-05-22T02:46:23.264Z,1010.73
2019-05-22T02:47:23.873Z,1010.71
2019-05-22T02:48:23.241Z,1010.75
2019-05-22T02:49:23.223Z,1010.73
2019-05-22T02:50:23.215Z,1010.66
2019-05-22T02:51:23.210Z,1010.70
2019-05-22T02:52:23.195Z,1010.74
2019-05-22T02:53:23.188Z,1010.71
2019-05-22T02:54:23.162Z,1010.77
2019-05-22T02:55:23.167Z,1010.82
2019-05-22T02:56:23.158Z,1010.78
2019-05-22T02:57:23.141Z,1010.79
2019-05-22T02:58:23.133Z,1010.79
2019-05-22T02:59:23.113Z,1010.76
2019-05-22T03:00:23.104Z,1010.80
2019-05-22T03:01:23.097Z,1010.78
2019-05-22T03:02:23.087Z,1010.81
2019-05-22T03:03:23.075Z,1010.81
2019-05-22T03:04:23.071Z,1010.81
2019-05-22T03:05:23.052Z,1010.83
2019-05-22T03:06:23.085Z,1010.82
2019-05-22T03:07:23.039Z,1010.88
2019-05-22T03:08:23.021Z,1010.89
2019-05-22T03:09:23.013Z,1010.95
2019-05-22T03:10:23.000Z,1010.98
2019-05-22T03:11:22.978Z,1010.93
2019-05-22T03:12:22.999Z,1010.90
2019-05-22T03:13:22.962Z,1010.94
2019-05-22T03:14:22.986Z,1010.92
2019-05-22T03:15:23.028Z,1010.92
2019-05-22T03:16:22.922Z,1010.95
2019-05-22T03:17:22.933Z,1010.96
2019-05-22T03:18:22.913Z,1010.95
2019-05-22T03:19:22.906Z,1010.96
2019-05-22T03:20:22.881Z,1011.01
2019-05-22T03:21:22.879Z,1011.02
2019-05-22T03:22:22.870Z,1011.03
2019-05-22T03:23:22.880Z,1010.96
2019-05-22T03:24:22.841Z,1010.97
2019-05-22T03:25:22.841Z,1011.04
2019-05-22T03:26:22.813Z,1011.03
2019-05-22T03:27:22.814Z,1011.04
2019-05-22T03:28:22.810Z,1011.06
2019-05-22T03:29:22.786Z,1011.07
2019-05-22T03:30:22.794Z,1011.07
2019-05-22T03:31:22.804Z,1011.02
2019-05-22T03:32:22.777Z,1011.06
2019-05-22T03:33:22.821Z,1011.07
2019-05-22T03:34:22.733Z,1011.11
2019-05-22T03:35:22.744Z,1011.10
2019-05-22T03:36:22.705Z,1011.17
2019-05-22T03:37:22.717Z,1011.16
2019-05-22T03:38:22.695Z,1011.14
2019-05-22T03:39:22.673Z,1011.16
2019-05-22T03:40:22.669Z,1011.15
2019-05-22T03:41:22.662Z,1011.17
2019-05-22T03:42:22.651Z,1011.16
2019-05-22T03:43:22.626Z,1011.17
2019-05-22T03:44:22.618Z,1011.16
2019-05-22T03:45:22.611Z,1011.20
2019-05-22T03:46:22.605Z,1011.23
2019-05-22T03:47:22.602Z,1011.20
2019-05-22T03:48:22.580Z,1011.22
2019-05-22T03:49:30.852Z,1011.21
2019-05-22T03:50:22.549Z,1011.18
2019-05-22T03:51:22.535Z,1011.21
2019-05-22T03:52:22.574Z,1011.21
2019-05-22T03:53:22.530Z,1011.28
2019-05-22T03:54:22.508Z,1011.25
2019-05-22T03:55:22.487Z,1011.29
2019-05-22T03:56:22.481Z,1011.32
2019-05-22T03:57:22.482Z,1011.33
2019-05-22T03:58:22.453Z,1011.34
2019-05-22T03:59:22.443Z,1011.33
2019-05-22T04:00:22.438Z,1011.30
2019-05-22T04:01:22.430Z,1011.33
2019-05-22T04:02:22.441Z,1011.35
2019-05-22T04:03:22.412Z,1011.27
2019-05-22T04:04:22.389Z,1011.31
2019-05-22T04:05:22.378Z,1011.37
2019-05-22T04:06:22.364Z,1011.33
2019-05-22T04:07:22.371Z,1011.38
2019-05-22T04:08:22.345Z,1011.40
2019-05-22T04:09:22.355Z,1011.43
2019-05-22T04:10:22.314Z,1011.36
2019-05-22T04:11:22.311Z,1011.38
2019-05-22T04:12:22.309Z,1011.42
2019-05-22T04:13:22.288Z,1011.39
2019-05-22T04:14:22.273Z,1011.44
2019-05-22T04:15:22.272Z,1011.45
2019-05-22T04:16:22.257Z,1011.43
2019-05-22T04:17:22.254Z,1011.44
2019-05-22T04:18:22.987Z,1011.45
2019-05-22T04:19:22.218Z,1011.50
2019-05-22T04:20:22.215Z,1011.52
2019-05-22T04:21:22.207Z,1011.47
2019-05-22T04:22:22.214Z,1011.55
2019-05-22T04:23:22.188Z,1011.55
2019-05-22T04:24:22.172Z,1011.48
2019-05-22T04:25:22.150Z,1011.47
2019-05-22T04:26:22.152Z,1011.48
2019-05-22T04:27:22.139Z,1011.51
2019-05-22T04:28:22.136Z,1011.52
2019-05-22T04:29:22.105Z,1011.51
2019-05-22T04:30:22.098Z,1011.48
2019-05-22T04:31:22.100Z,1011.53
2019-05-22T04:32:22.079Z,1011.53
2019-05-22T04:33:22.129Z,1011.54
2019-05-22T04:34:22.060Z,1011.55
2019-05-22T04:35:22.041Z,1011.54
2019-05-22T04:36:22.043Z,1011.53
2019-05-22T04:37:22.031Z,1011.52
2019-05-22T04:38:22.033Z,1011.57
2019-05-22T04:39:22.261Z,1011.60
2019-05-22T04:40:21.992Z,1011.64
2019-05-22T04:41:21.983Z,1011.60
2019-05-22T04:42:21.992Z,1011.65
2019-05-22T04:43:21.968Z,1011.65
2019-05-22T04:44:21.941Z,1011.60
2019-05-22T04:45:21.934Z,1011.67
2019-05-22T04:46:21.930Z,1011.63
2019-05-22T04:47:21.910Z,1011.66
2019-05-22T04:48:21.916Z,1011.68
2019-05-22T04:49:21.898Z,1011.68
2019-05-22T04:50:21.874Z,1011.69
2019-05-22T04:51:21.863Z,1011.65
2019-05-22T04:52:21.875Z,1011.67
2019-05-22T04:53:21.859Z,1011.61
2019-05-22T04:54:21.833Z,1011.67
2019-05-22T04:55:21.817Z,1011.66
2019-05-22T04:56:21.820Z,1011.64
2019-05-22T04:57:21.795Z,1011.67
2019-05-22T04:58:21.814Z,1011.71
2019-05-22T04:59:21.776Z,1011.68
2019-05-22T05:00:21.765Z,1011.75
2019-05-22T05:01:21.744Z,1011.74
2019-05-22T05:02:21.775Z,1011.75
2019-05-22T05:03:21.754Z,1011.76
2019-05-22T05:04:21.728Z,1011.77
2019-05-22T05:05:21.715Z,1011.79
2019-05-22T05:06:21.706Z,1011.77
2019-05-22T05:07:21.718Z,1011.86
2019-05-22T05:08:21.724Z,1011.87
2019-05-22T05:09:21.674Z,1011.85
2019-05-22T05:10:21.661Z,1011.87
2019-05-22T05:11:22.632Z,1011.88
2019-05-22T05:12:21.629Z,1011.90
2019-05-22T05:13:21.653Z,1011.90
2019-05-22T05:14:21.604Z,1011.92
2019-05-22T05:15:21.593Z,1011.92
2019-05-22T05:16:21.613Z,1011.95
2019-05-22T05:17:21.576Z,1011.94
2019-05-22T05:18:21.574Z,1011.95
2019-05-22T05:19:21.565Z,1011.92
2019-05-22T05:20:22.910Z,1011.99
2019-05-22T05:21:21.530Z,1011.98
2019-05-22T05:22:21.544Z,1012.00
2019-05-22T05:23:21.515Z,1012.05
2019-05-22T05:24:21.494Z,1012.01
2019-05-22T05:25:21.480Z,1012.02
2019-05-22T05:26:21.474Z,1012.06
2019-05-22T05:27:21.480Z,1012.04
2019-05-22T05:28:21.509Z,1012.10
2019-05-22T05:29:22.379Z,1012.06
2019-05-22T05:30:21.473Z,1012.06
2019-05-22T05:31:21.449Z,1012.05
2019-05-22T05:32:21.418Z,1012.05
2019-05-22T05:33:21.453Z,1012.05
2019-05-22T05:34:21.405Z,1012.07
2019-05-22T05:35:21.418Z,1012.11
2019-05-22T05:36:21.364Z,1012.08
2019-05-22T05:37:21.353Z,1012.16
2019-05-22T05:38:21.359Z,1012.12
2019-05-22T05:39:21.870Z,1012.09
2019-05-22T05:40:21.326Z,1012.15
2019-05-22T05:41:21.348Z,1012.15
2019-05-22T05:42:21.325Z,1012.14
2019-05-22T05:43:21.317Z,1012.13
2019-05-22T05:44:21.283Z,1012.17
2019-05-22T05:45:21.267Z,1012.16
2019-05-22T05:46:21.249Z,1012.13
2019-05-22T05:47:21.248Z,1012.17
2019-05-22T05:48:21.240Z,1012.17
2019-05-22T05:49:21.873Z,1012.21
2019-05-22T05:50:21.220Z,1012.23
2019-05-22T05:51:21.196Z,1012.22
2019-05-22T05:52:21.193Z,1012.15
2019-05-22T05:53:21.196Z,1012.27
2019-05-22T05:54:21.201Z,1012.17
2019-05-22T05:55:21.173Z,1012.26
2019-05-22T05:56:21.147Z,1012.18
2019-05-22T05:57:21.138Z,1012.17
2019-05-22T05:58:21.130Z,1012.21
2019-05-22T05:59:21.131Z,1012.14
2019-05-22T06:00:21.131Z,1012.16
2019-05-22T06:01:21.090Z,1012.19
2019-05-22T06:02:21.091Z,1012.18
2019-05-22T06:03:21.090Z,1012.22
2019-05-22T06:04:33.674Z,1012.22
2019-05-22T06:05:21.049Z,1012.25
2019-05-22T06:06:22.104Z,1012.30
2019-05-22T06:07:21.030Z,1012.29
2019-05-22T06:08:21.015Z,1012.30
2019-05-22T06:09:21.013Z,1012.33
2019-05-22T06:10:21.927Z,1012.35
2019-05-22T06:11:21.077Z,1012.35
2019-05-22T06:12:21.257Z,1012.34
2019-05-22T06:13:21.049Z,1012.38
2019-05-22T06:14:21.042Z,1012.38
2019-05-22T06:15:21.035Z,1012.33
2019-05-22T06:16:20.930Z,1012.38
2019-05-22T06:17:20.930Z,1012.35
2019-05-22T06:18:20.928Z,1012.38
2019-05-22T06:19:20.975Z,1012.39
2019-05-22T06:20:25.942Z,1012.41
2019-05-22T06:21:20.963Z,1012.42
2019-05-22T06:22:20.924Z,1012.43
2019-05-22T06:23:20.876Z,1012.43
2019-05-22T06:24:20.944Z,1012.47
2019-05-22T06:25:20.931Z,1012.45
2019-05-22T06:26:21.159Z,1012.46
2019-05-22T06:27:20.840Z,1012.48
2019-05-22T06:28:20.791Z,1012.51
2019-05-22T06:29:20.796Z,1012.46
2019-05-22T06:30:20.805Z,1012.53
2019-05-22T06:31:20.821Z,1012.53
2019-05-22T06:32:20.747Z,1012.52
2019-05-22T06:33:20.735Z,1012.56
2019-05-22T06:34:20.734Z,1012.55
2019-05-22T06:35:20.729Z,1012.55
2019-05-22T06:36:20.716Z,1012.46
2019-05-22T06:37:20.750Z,1012.56
2019-05-22T06:38:20.685Z,1012.49
2019-05-22T06:39:20.696Z,1012.51
2019-05-22T06:40:20.663Z,1012.52
2019-05-22T06:41:20.640Z,1012.48
2019-05-22T06:42:21.699Z,1012.46
2019-05-22T06:43:20.710Z,1012.46
2019-05-22T06:44:20.660Z,1012.50
2019-05-22T06:45:20.593Z,1012.47
2019-05-22T06:46:20.635Z,1012.48
2019-05-22T06:47:20.675Z,1012.52
2019-05-22T06:48:20.666Z,1012.54
2019-05-22T06:49:20.612Z,1012.51
2019-05-22T06:50:20.577Z,1012.54
2019-05-22T06:51:20.533Z,1012.52
2019-05-22T06:52:20.530Z,1012.51
2019-05-22T06:53:20.522Z,1012.53
2019-05-22T06:54:20.517Z,1012.53
2019-05-22T06:55:20.490Z,1012.52
2019-05-22T06:56:23.703Z,1012.52
2019-05-22T06:57:20.807Z,1012.54
2019-05-22T06:58:20.477Z,1012.53
2019-05-22T06:59:20.461Z,1012.61
2019-05-22T07:00:20.469Z,1012.57
2019-05-22T07:01:20.450Z,1012.59
2019-05-22T07:02:20.431Z,1012.59
2019-05-22T07:03:20.410Z,1012.61
2019-05-22T07:04:20.413Z,1012.63
2019-05-22T07:05:20.394Z,1012.61
2019-05-22T07:06:20.391Z,1012.66
2019-05-22T07:07:20.372Z,1012.68
2019-05-22T07:08:20.362Z,1012.61
2019-05-22T07:09:20.373Z,1012.64
2019-05-22T07:10:20.370Z,1012.66
2019-05-22T07:11:20.314Z,1012.66
2019-05-22T07:12:20.317Z,1012.62
2019-05-22T07:13:20.292Z,1012.67
2019-05-22T07:14:20.281Z,1012.67
2019-05-22T07:15:20.593Z,1012.72
2019-05-22T07:16:20.300Z,1012.71
2019-05-22T07:17:20.353Z,1012.70
2019-05-22T07:18:20.233Z,1012.72
2019-05-22T07:19:20.232Z,1012.68
2019-05-22T07:20:20.226Z,1012.74
2019-05-22T07:21:33.348Z,1012.72
2019-05-22T07:22:20.183Z,1012.73
2019-05-22T07:23:20.196Z,1012.75
2019-05-22T07:24:20.227Z,1012.75
2019-05-22T07:25:20.234Z,1012.77
2019-05-22T07:26:20.147Z,1012.79
2019-05-22T07:27:20.138Z,1012.79
2019-05-22T07:28:20.129Z,1012.78
2019-05-22T07:29:20.119Z,1012.73
2019-05-22T07:30:20.120Z,1012.72
2019-05-22T07:31:20.169Z,1012.75
2019-05-22T07:32:20.083Z,1012.78
2019-05-22T07:33:20.078Z,1012.80
2019-05-22T07:34:20.100Z,1012.79
2019-05-22T07:35:20.069Z,1012.80
2019-05-22T07:36:20.133Z,1012.82
2019-05-22T07:37:20.036Z,1012.79
2019-05-22T07:38:20.272Z,1012.81
2019-05-22T07:39:20.879Z,1012.82
2019-05-22T07:40:20.075Z,1012.74
2019-05-22T07:41:20.001Z,1012.76
2019-05-22T07:42:20.031Z,1012.77
2019-05-22T07:43:19.998Z,1012.83
2019-05-22T07:44:20.008Z,1012.75
2019-05-22T07:45:19.968Z,1012.78
2019-05-22T07:46:20.926Z,1012.78
2019-05-22T07:47:19.919Z,1012.82
2019-05-22T07:48:19.920Z,1012.81
2019-05-22T07:49:19.907Z,1012.87
2019-05-22T07:50:19.905Z,1012.81
2019-05-22T07:51:20.669Z,1012.83
2019-05-22T07:52:19.888Z,1012.81
2019-05-22T07:53:20.568Z,1012.80
2019-05-22T07:54:19.837Z,1012.83
2019-05-22T07:55:19.911Z,1012.78
2019-05-22T07:56:19.883Z,1012.84
2019-05-22T07:57:20.382Z,1012.82
2019-05-22T07:58:19.827Z,1012.84
2019-05-22T07:59:19.795Z,1012.88
2019-05-22T08:00:19.845Z,1012.88
2019-05-22T08:01:19.774Z,1012.88
2019-05-22T08:02:20.378Z,1012.87
2019-05-22T08:03:19.763Z,1012.88
2019-05-22T08:04:19.799Z,1012.90
2019-05-22T08:05:19.731Z,1012.87
2019-05-22T08:06:19.726Z,1012.85
2019-05-22T08:07:20.405Z,1012.86
2019-05-22T08:08:19.720Z,1012.84
2019-05-22T08:09:24.797Z,1012.87
2019-05-22T08:10:19.661Z,1012.85
2019-05-22T08:11:19.685Z,1012.88
2019-05-22T08:12:19.647Z,1012.83
2019-05-22T08:13:19.624Z,1012.93
2019-05-22T08:14:19.685Z,1012.89
2019-05-22T08:15:19.667Z,1012.91
2019-05-22T08:16:20.628Z,1012.90
2019-05-22T08:17:19.587Z,1012.90
2019-05-22T08:18:20.599Z,1012.90
2019-05-22T08:19:19.679Z,1012.89
2019-05-22T08:20:19.811Z,1012.91
2019-05-22T08:21:23.581Z,1012.94
2019-05-22T08:22:20.514Z,1012.94
2019-05-22T08:23:19.549Z,1012.97
2019-05-22T08:24:19.522Z,1012.90
2019-05-22T08:25:19.527Z,1012.92
2019-05-22T08:26:20.787Z,1012.94
2019-05-22T08:27:19.491Z,1012.95
2019-05-22T08:28:21.118Z,1012.97
2019-05-22T08:29:19.471Z,1012.95
2019-05-22T08:30:19.462Z,1012.98
2019-05-22T08:31:23.398Z,1012.98
2019-05-22T08:32:19.525Z,1012.98
2019-05-22T08:33:19.417Z,1013.01
2019-05-22T08:34:19.432Z,1013.04
2019-05-22T08:35:19.482Z,1013.07
2019-05-22T08:36:19.391Z,1013.02
2019-05-22T08:37:19.384Z,1013.01
2019-05-22T08:38:19.357Z,1013.06
2019-05-22T08:39:28.765Z,1013.07
2019-05-22T08:40:19.338Z,1013.08
2019-05-22T08:41:19.348Z,1013.07
2019-05-22T08:42:19.655Z,1013.07
2019-05-22T08:43:19.416Z,1013.14
2019-05-22T08:44:20.771Z,1013.10
2019-05-22T08:45:19.382Z,1013.10
2019-05-22T08:46:19.335Z,1013.17
2019-05-22T08:47:19.308Z,1013.12
2019-05-22T08:48:20.378Z,1013.14
2019-05-22T08:49:20.434Z,1013.15
2019-05-22T08:50:19.365Z,1013.16
2019-05-22T08:51:19.377Z,1013.15
2019-05-22T08:52:23.705Z,1013.16
2019-05-22T08:53:20.893Z,1013.22
2019-05-22T08:54:20.569Z,1013.23
2019-05-22T08:55:19.208Z,1013.17
2019-05-22T08:56:19.752Z,1013.18
2019-05-22T08:57:19.526Z,1013.17
2019-05-22T08:58:19.225Z,1013.13
2019-05-22T08:59:20.067Z,1013.15
2019-05-22T09:00:19.373Z,1013.14
2019-05-22T09:01:19.201Z,1013.16
2019-05-22T09:02:19.213Z,1013.17
2019-05-22T09:03:19.338Z,1013.18
2019-05-22T09:04:19.408Z,1013.17
2019-05-22T09:05:21.413Z,1013.17
2019-05-22T09:06:19.126Z,1013.19
2019-05-22T09:07:19.144Z,1013.19
2019-05-22T09:08:19.094Z,1013.21
2019-05-22T09:09:19.626Z,1013.17
2019-05-22T09:10:19.059Z,1013.21
2019-05-22T09:11:19.549Z,1013.17
2019-05-22T09:12:18.969Z,1013.19
2019-05-22T09:13:19.041Z,1013.19
2019-05-22T09:14:18.980Z,1013.17
2019-05-22T09:15:18.979Z,1013.18
2019-05-22T09:16:18.985Z,1013.18
2019-05-22T09:17:18.939Z,1013.18
2019-05-22T09:18:18.921Z,1013.18
2019-05-22T09:19:18.911Z,1013.17
2019-05-22T09:20:18.925Z,1013.17
2019-05-22T09:21:18.901Z,1013.20
2019-05-22T09:22:18.892Z,1013.22
2019-05-22T09:23:18.890Z,1013.22
2019-05-22T09:24:18.886Z,1013.17
2019-05-22T09:25:18.865Z,1013.20
2019-05-22T09:26:18.838Z,1013.23
2019-05-22T09:27:18.836Z,1013.22
2019-05-22T09:28:18.833Z,1013.25
2019-05-22T09:29:18.806Z,1013.26
2019-05-22T09:30:18.843Z,1013.28
2019-05-22T09:31:18.827Z,1013.25
2019-05-22T09:32:20.462Z,1013.26
2019-05-22T09:33:18.824Z,1013.28
2019-05-22T09:34:18.953Z,1013.25
2019-05-22T09:35:19.215Z,1013.19
2019-05-22T09:36:18.739Z,1013.21
2019-05-22T09:37:18.820Z,1013.24
2019-05-22T09:38:18.726Z,1013.24
2019-05-22T09:39:18.745Z,1013.23
2019-05-22T09:40:18.698Z,1013.24
2019-05-22T09:41:19.110Z,1013.18
2019-05-22T09:42:18.781Z,1013.20
2019-05-22T09:43:18.714Z,1013.23
2019-05-22T09:44:18.625Z,1013.24
2019-05-22T09:45:19.265Z,1013.27
2019-05-22T09:46:18.605Z,1013.23
2019-05-22T09:47:18.607Z,1013.24
2019-05-22T09:48:19.129Z,1013.29
2019-05-22T09:49:19.173Z,1013.21
2019-05-22T09:50:18.967Z,1013.26
2019-05-22T09:51:18.953Z,1013.30
2019-05-22T09:52:19.026Z,1013.31
2019-05-22T09:53:19.870Z,1013.34
2019-05-22T09:54:18.526Z,1013.31
2019-05-22T09:55:19.348Z,1013.35
2019-05-22T09:56:19.117Z,1013.35
2019-05-22T09:57:19.156Z,1013.37
2019-05-22T09:58:18.534Z,1013.37
2019-05-22T09:59:18.753Z,1013.31
2019-05-22T10:00:18.508Z,1013.37
2019-05-22T10:01:18.439Z,1013.38
2019-05-22T10:02:18.440Z,1013.36
2019-05-22T10:03:18.420Z,1013.36
2019-05-22T10:04:19.130Z,1013.34
2019-05-22T10:05:18.419Z,1013.36
2019-05-22T10:06:21.485Z,1013.30
2019-05-22T10:07:18.538Z,1013.38
2019-05-22T10:08:18.845Z,1013.36
2019-05-22T10:09:18.486Z,1013.43
2019-05-22T10:10:18.441Z,1013.41
2019-05-22T10:11:18.361Z,1013.44
2019-05-22T10:12:18.319Z,1013.42
2019-05-22T10:13:18.363Z,1013.45
2019-05-22T10:14:19.413Z,1013.38
2019-05-22T10:15:19.425Z,1013.42
2019-05-22T10:16:18.276Z,1013.40
2019-05-22T10:17:18.261Z,1013.43
2019-05-22T10:18:18.242Z,1013.34
2019-05-22T10:19:18.236Z,1013.34
2019-05-22T10:20:18.317Z,1013.30
2019-05-22T10:21:18.212Z,1013.32
2019-05-22T10:22:19.454Z,1013.23
2019-05-22T10:23:18.228Z,1013.25
2019-05-22T10:24:18.194Z,1013.22
2019-05-22T10:25:18.174Z,1013.28
2019-05-22T10:26:18.175Z,1013.28
2019-05-22T10:27:18.909Z,1013.29
2019-05-22T10:28:18.145Z,1013.25
2019-05-22T10:29:19.215Z,1013.31
2019-05-22T10:30:18.121Z,1013.27
2019-05-22T10:31:21.666Z,1013.26
2019-05-22T10:32:18.141Z,1013.23
2019-05-22T10:33:18.894Z,1013.29
2019-05-22T10:34:18.069Z,1013.30
2019-05-22T10:35:18.067Z,1013.28
2019-05-22T10:36:19.529Z,1013.36
2019-05-22T10:37:19.502Z,1013.30
2019-05-22T10:38:18.190Z,1013.32
2019-05-22T10:39:19.348Z,1013.40
2019-05-22T10:40:19.408Z,1013.35
2019-05-22T10:41:23.255Z,1013.30
2019-05-22T10:42:18.014Z,1013.32
2019-05-22T10:43:18.207Z,1013.29
2019-05-22T10:44:19.598Z,1013.30
2019-05-22T10:45:17.940Z,1013.29
2019-05-22T10:46:20.976Z,1013.31
2019-05-22T10:47:18.983Z,1013.38
2019-05-22T10:48:19.335Z,1013.32
2019-05-22T10:49:19.323Z,1013.31
2019-05-22T10:50:18.269Z,1013.35
2019-05-22T10:51:18.345Z,1013.32
2019-05-22T10:52:18.117Z,1013.36
2019-05-22T10:53:32.878Z,1013.31
2019-05-22T10:54:19.208Z,1013.28
2019-05-22T10:55:19.135Z,1013.33
2019-05-22T10:56:18.583Z,1013.31
2019-05-22T10:57:19.436Z,1013.28
2019-05-22T10:58:18.344Z,1013.31
2019-05-22T10:59:17.903Z,1013.29
2019-05-22T11:00:17.930Z,1013.27
2019-05-22T11:01:17.789Z,1013.30
2019-05-22T11:02:18.908Z,1013.27
2019-05-22T11:03:17.766Z,1013.27
2019-05-22T11:04:19.550Z,1013.28
2019-05-22T11:05:19.171Z,1013.29
2019-05-22T11:06:18.547Z,1013.27
2019-05-22T11:07:19.332Z,1013.28
2019-05-22T11:08:17.718Z,1013.22
2019-05-22T11:09:18.940Z,1013.21
2019-05-22T11:10:17.669Z,1013.23
2019-05-22T11:11:17.644Z,1013.22
2019-05-22T11:12:17.681Z,1013.26
2019-05-22T11:13:17.944Z,1013.27
2019-05-22T11:14:17.792Z,1013.28
2019-05-22T11:15:17.608Z,1013.29
2019-05-22T11:16:17.770Z,1013.31
2019-05-22T11:17:17.634Z,1013.30
2019-05-22T11:18:19.003Z,1013.31
2019-05-22T11:19:17.633Z,1013.26
2019-05-22T11:20:17.673Z,1013.27
2019-05-22T11:21:17.561Z,1013.21
2019-05-22T11:22:17.558Z,1013.23
2019-05-22T11:23:17.731Z,1013.19
2019-05-22T11:24:17.518Z,1013.20
2019-05-22T11:25:17.494Z,1013.20
2019-05-22T11:26:18.478Z,1013.24
2019-05-22T11:27:17.472Z,1013.21
2019-05-22T11:28:17.461Z,1013.21
2019-05-22T11:29:17.492Z,1013.19
2019-05-22T11:30:17.465Z,1013.21
2019-05-22T11:31:17.420Z,1013.17
2019-05-22T11:32:17.429Z,1013.15
2019-05-22T11:33:17.407Z,1013.20
2019-05-22T11:34:17.402Z,1013.17
2019-05-22T11:35:18.387Z,1013.18
2019-05-22T11:36:17.370Z,1013.10
2019-05-22T11:37:17.355Z,1013.10
2019-05-22T11:38:18.762Z,1013.16
2019-05-22T11:39:17.535Z,1013.11
2019-05-22T11:40:17.341Z,1013.12
2019-05-22T11:41:17.321Z,1013.13
2019-05-22T11:42:17.315Z,1013.14
2019-05-22T11:43:17.516Z,1013.09
2019-05-22T11:44:17.293Z,1013.14
2019-05-22T11:45:17.271Z,1013.13
2019-05-22T11:46:17.270Z,1013.13
2019-05-22T11:47:18.286Z,1013.11
2019-05-22T11:48:17.238Z,1013.11
2019-05-22T11:49:17.217Z,1013.08
2019-05-22T11:50:17.222Z,1013.08
2019-05-22T11:51:18.218Z,1013.15
2019-05-22T11:52:17.351Z,1013.12
2019-05-22T11:53:20.329Z,1013.11
2019-05-22T11:54:17.167Z,1013.17
2019-05-22T11:55:17.232Z,1013.20
2019-05-22T11:56:17.162Z,1013.14
2019-05-22T11:57:17.406Z,1013.13
2019-05-22T11:58:18.533Z,1013.18
2019-05-22T11:59:17.241Z,1013.09
2019-05-22T12:00:26.182Z,1013.13
2019-05-22T12:01:17.113Z,1013.16
2019-05-22T12:02:18.095Z,1013.09
2019-05-22T12:03:17.138Z,1013.07
2019-05-22T12:04:17.197Z,1013.11
2019-05-22T12:05:17.096Z,1013.08